Relevés horaires Schaffen (Belgique)


Relevés horaires à Schaffen - Vendredi 09 Avr. 2021
Heure UTC1 Température [°C] Vent [km/h] Hum. [%] Pres.4 [hPa] Visi. [Km] Nébu. [octa] Préc.5 [mm] Cond.
2m. Res. Ros. Dir.2 Vit. Moy. Raf.3
23:00 8.9 8.9 3.1 NNO 1.9 -- 7.4 67 1011.7(-0.6/3h) 20 -- -- --
22:00 8.5 8.5 2.9 NE 3.7 -- 7.4 68 1011.8(-0.2/3h) 20 -- -- --
21:00 9.5 9.5 2.8 NE 3.7 -- 11.1 63 1012.2(0.3/3h) 20 -- -- --
20:00 9.6 8.7 3.1 N 7.4 -- 9.3 64 1012.3(0.1/3h) 20 -- -- --
19:00 10.5 10.2 2.5 N 5.6 -- 9.3 58 1012.1(-0.3/3h) 20 -- -- --
18:00 12.6 12.6 0.1 NNO 1.9 -- 16.7 42 1011.8(-0.8/3h) 20 -- -- --
17:00 13.1 13.1 0.3 OSO 5.6 -- 13.0 41 1012.2(-0.9/3h) 20 -- -- --
16:00 13.0 13 1.5 SO 5.6 -- 9.3 45 1012.3(-1.3/3h) 20 -- -- --
15:00 13.3 13.3 1.8 SO 3.7 -- 16.7 46 1012.7(-1.5/3h) 20 -- -- --
14:00 12.6 12.6 1.4 OSO 5.6 -- 13.0 46 1013.2(-1.4/3h) 20 7/8 -- --
13:00 12.2 11.4 1.8 O 9.3 -- 16.7 49 1013.7(-1.1/3h) 20 7/8 -- --
12:00 12.3 11.8 2.3 SO 7.4 -- 14.8 50 1014.2(-0.8/3h) 20 7/8 -- --
11:00 10.6 9.8 1.7 SO 7.4 -- 11.1 54 1014.7(-0.5/3h) 20 -- -- --
10:00 9.2 8.7 0.7 SSO 5.6 -- 11.1 55 1015(-0.2/3h) 20 -- -- --
09:00 8.8 7.7 0.6 SO 7.4 -- 11.1 56 1015.2(-0.2/3h) 20 -- -- --
08:00 7.4 6.1 -0.1 OSO 7.4 -- 11.1 59 1015.3(-0.2/3h) 20 -- -- --
07:00 5.1 5.1 -0.5 S 3.7 -- 5.6 67 1015.3(-0.4/3h) 20 -- -- --
06:00 3.5 3.5 -0.9 S 3.7 -- 7.4 73 1015.5(-0.6/3h) 20 -- -- --
05:00 3.4 3.4 -1.2 NNO 1.9 -- 5.6 72 1015.7(-1.0/3h) 20 -- -- --
04:00 3.7 3.7 -1.3 SSO 3.7 -- 7.4 70 1015.8(-1.4/3h) 20 -- -- --
03:00 3.9 3.9 -1.2 SSO 3.7 -- 7.4 69 1016.2(-1.6/3h) 20 -- -- --
02:00 3.7 3.7 -1.3 S 3.7 -- 7.4 70 1016.7(-1.8/3h) 20 -- -- --
01:00 3.6 3.6 -1.3 S 3.7 -- 7.4 70 1017.3(-1.7/3h) 20 -- -- --
00:00 3.3 3.3 -1.4 S 3.7 -- 7.4 71 1018(-1.8/3h) 20 -- -- --

1 Coordinated Universal Time. Actuellement il est 21:00 locale et 19:00 UTC.

2 Le vent souffle depuis la direction indiquée vers la direction oposée.

3 Les rafales max. sont disponible 40 min après l'heure du relevé.

4 Pour les stations d'altitude (plus de 600m) le géopotentiel du niveau le plus proche de la pression obligatoire est indiqué.

5 Les stations disposant d'un diffuseur peuvent indiquer "trace". Cela signifie que des précipitations ont touchés le sol mais que la quantité est inférieure à 0.1 mm.

Récapitulatif de la journée
Température [°C] Vent [km/h] Ensoleillement4 [h] Precipitations totale5 [mm] Pression [Hpa]
Min1 Max.2 Moy.3 Max. Min Max.
3.0 14.1 0 16.7 0 h 0 min 0 1011.7 1018.0

1 Température minimale relevée entre 18:00 UTC la veille et 18:00 UTC le jour donné.

2 Température maximale relevée entre 06:00 UTC le jour donné et 06:00 UTC le lendemain.

3 Vent moyen de la journée basé sur les relevés horaires.

4 Ensoleillement en heures relevé entre 06:00 UTC la veille et 06:00 UTC le jour donné.

5 Précipitations totales tombées entre 06:00 UTC la jour donné et 06:00 UTC le lendemain.

Graphiques horaires